sensor_id;sensor_type;location;lat;lon;timestamp;P1;durP1;ratioP1;P2;durP2;ratioP2
19006;SDS011;9636;47.382;8.480;2023-07-20T00:00:17;3.13;;;2.70;;
19006;SDS011;9636;47.382;8.480;2023-07-20T00:02:44;3.85;;;2.85;;
19006;SDS011;9636;47.382;8.480;2023-07-20T00:05:11;4.40;;;2.60;;
19006;SDS011;9636;47.382;8.480;2023-07-20T00:07:39;4.43;;;2.70;;
19006;SDS011;9636;47.382;8.480;2023-07-20T00:10:06;4.38;;;2.70;;
19006;SDS011;9636;47.382;8.480;2023-07-20T00:12:34;4.63;;;2.53;;
19006;SDS011;9636;47.382;8.480;2023-07-20T00:15:00;3.95;;;2.90;;
19006;SDS011;9636;47.382;8.480;2023-07-20T00:17:27;3.80;;;2.67;;
19006;SDS011;9636;47.382;8.480;2023-07-20T00:19:54;5.15;;;2.85;;
19006;SDS011;9636;47.382;8.480;2023-07-20T00:22:21;5.82;;;2.65;;
19006;SDS011;9636;47.382;8.480;2023-07-20T00:24:49;5.55;;;2.85;;
19006;SDS011;9636;47.382;8.480;2023-07-20T00:27:16;3.05;;;2.65;;
19006;SDS011;9636;47.382;8.480;2023-07-20T00:29:42;4.90;;;2.47;;
19006;SDS011;9636;47.382;8.480;2023-07-20T00:32:09;4.13;;;2.35;;
19006;SDS011;9636;47.382;8.480;2023-07-20T00:34:36;4.13;;;2.67;;
19006;SDS011;9636;47.382;8.480;2023-07-20T00:37:03;4.80;;;2.67;;
19006;SDS011;9636;47.382;8.480;2023-07-20T00:39:30;2.60;;;2.30;;
19006;SDS011;9636;47.382;8.480;2023-07-20T00:41:58;3.10;;;2.60;;
19006;SDS011;9636;47.382;8.480;2023-07-20T00:44:25;5.05;;;2.60;;
19006;SDS011;9636;47.382;8.480;2023-07-20T00:46:52;3.85;;;2.40;;
19006;SDS011;9636;47.382;8.480;2023-07-20T00:49:19;6.45;;;2.80;;
19006;SDS011;9636;47.382;8.480;2023-07-20T00:51:47;4.00;;;2.38;;
19006;SDS011;9636;47.382;8.480;2023-07-20T00:54:14;4.00;;;2.70;;
19006;SDS011;9636;47.382;8.480;2023-07-20T00:56:41;4.93;;;2.63;;
19006;SDS011;9636;47.382;8.480;2023-07-20T00:59:11;3.83;;;2.55;;
19006;SDS011;9636;47.382;8.480;2023-07-20T01:01:38;3.85;;;2.33;;
19006;SDS011;9636;47.382;8.480;2023-07-20T01:04:04;5.53;;;2.50;;
19006;SDS011;9636;47.382;8.480;2023-07-20T01:06:34;2.65;;;2.45;;
19006;SDS011;9636;47.382;8.480;2023-07-20T01:09:08;4.45;;;2.40;;
19006;SDS011;9636;47.382;8.480;2023-07-20T01:11:42;3.35;;;2.30;;
19006;SDS011;9636;47.382;8.480;2023-07-20T01:14:15;6.15;;;2.42;;
19006;SDS011;9636;47.382;8.480;2023-07-20T01:16:42;2.83;;;2.10;;
19006;SDS011;9636;47.382;8.480;2023-07-20T01:19:09;3.70;;;2.30;;
19006;SDS011;9636;47.382;8.480;2023-07-20T01:21:39;3.00;;;2.33;;
19006;SDS011;9636;47.382;8.480;2023-07-20T01:27:19;4.57;;;2.15;;
19006;SDS011;9636;47.382;8.480;2023-07-20T01:30:14;3.65;;;2.30;;
19006;SDS011;9636;47.382;8.480;2023-07-20T01:33:00;2.35;;;2.13;;
19006;SDS011;9636;47.382;8.480;2023-07-20T01:35:28;4.82;;;2.33;;
19006;SDS011;9636;47.382;8.480;2023-07-20T01:37:56;3.90;;;2.20;;
19006;SDS011;9636;47.382;8.480;2023-07-20T01:40:24;2.58;;;1.90;;
19006;SDS011;9636;47.382;8.480;2023-07-20T01:42:52;3.00;;;1.98;;
19006;SDS011;9636;47.382;8.480;2023-07-20T01:45:19;3.38;;;1.90;;
19006;SDS011;9636;47.382;8.480;2023-07-20T01:47:46;2.50;;;2.17;;
19006;SDS011;9636;47.382;8.480;2023-07-20T01:50:14;3.38;;;2.10;;
19006;SDS011;9636;47.382;8.480;2023-07-20T01:52:41;3.20;;;2.05;;
19006;SDS011;9636;47.382;8.480;2023-07-20T01:55:08;2.88;;;2.15;;
19006;SDS011;9636;47.382;8.480;2023-07-20T01:57:35;4.72;;;2.03;;
19006;SDS011;9636;47.382;8.480;2023-07-20T02:00:01;2.30;;;1.90;;
19006;SDS011;9636;47.382;8.480;2023-07-20T02:02:28;2.97;;;2.10;;
19006;SDS011;9636;47.382;8.480;2023-07-20T02:04:55;3.25;;;2.03;;
19006;SDS011;9636;47.382;8.480;2023-07-20T02:07:24;3.90;;;2.10;;
19006;SDS011;9636;47.382;8.480;2023-07-20T02:09:51;3.47;;;2.08;;
19006;SDS011;9636;47.382;8.480;2023-07-20T02:12:18;4.72;;;1.80;;
19006;SDS011;9636;47.382;8.480;2023-07-20T02:14:44;3.50;;;1.92;;
19006;SDS011;9636;47.382;8.480;2023-07-20T02:17:12;3.83;;;2.00;;
19006;SDS011;9636;47.382;8.480;2023-07-20T02:19:40;3.90;;;2.13;;
19006;SDS011;9636;47.382;8.480;2023-07-20T02:22:07;2.15;;;1.83;;
19006;SDS011;9636;47.382;8.480;2023-07-20T02:24:35;3.40;;;1.80;;
19006;SDS011;9636;47.382;8.480;2023-07-20T02:27:02;4.47;;;2.10;;
19006;SDS011;9636;47.382;8.480;2023-07-20T02:29:28;2.55;;;1.88;;
19006;SDS011;9636;47.382;8.480;2023-07-20T02:31:55;2.67;;;1.90;;
19006;SDS011;9636;47.382;8.480;2023-07-20T02:34:22;6.72;;;2.10;;
19006;SDS011;9636;47.382;8.480;2023-07-20T02:36:49;4.07;;;2.03;;
19006;SDS011;9636;47.382;8.480;2023-07-20T02:39:16;4.53;;;1.90;;
19006;SDS011;9636;47.382;8.480;2023-07-20T02:41:44;3.13;;;1.90;;
19006;SDS011;9636;47.382;8.480;2023-07-20T02:44:11;5.45;;;2.25;;
19006;SDS011;9636;47.382;8.480;2023-07-20T02:46:37;2.70;;;1.70;;
19006;SDS011;9636;47.382;8.480;2023-07-20T02:49:04;2.45;;;1.52;;
19006;SDS011;9636;47.382;8.480;2023-07-20T02:51:31;3.35;;;1.73;;
19006;SDS011;9636;47.382;8.480;2023-07-20T02:53:58;1.80;;;1.70;;
19006;SDS011;9636;47.382;8.480;2023-07-20T02:56:26;2.50;;;1.90;;
19006;SDS011;9636;47.382;8.480;2023-07-20T02:58:54;2.33;;;1.77;;
19006;SDS011;9636;47.382;8.480;2023-07-20T03:01:22;2.47;;;1.70;;
19006;SDS011;9636;47.382;8.480;2023-07-20T03:03:49;4.43;;;1.90;;
19006;SDS011;9636;47.382;8.480;2023-07-20T03:06:16;4.70;;;1.90;;
19006;SDS011;9636;47.382;8.480;2023-07-20T03:08:43;3.45;;;1.73;;
19006;SDS011;9636;47.382;8.480;2023-07-20T03:11:12;2.63;;;1.95;;
19006;SDS011;9636;47.382;8.480;2023-07-20T03:13:40;2.63;;;1.90;;
19006;SDS011;9636;47.382;8.480;2023-07-20T03:16:08;3.60;;;1.88;;
19006;SDS011;9636;47.382;8.480;2023-07-20T03:18:36;3.20;;;2.03;;
19006;SDS011;9636;47.382;8.480;2023-07-20T03:21:03;3.85;;;1.92;;
19006;SDS011;9636;47.382;8.480;2023-07-20T03:23:31;4.10;;;1.65;;
19006;SDS011;9636;47.382;8.480;2023-07-20T03:25:58;4.25;;;1.80;;
19006;SDS011;9636;47.382;8.480;2023-07-20T03:28:25;3.50;;;1.90;;
19006;SDS011;9636;47.382;8.480;2023-07-20T03:30:55;2.70;;;1.90;;
19006;SDS011;9636;47.382;8.480;2023-07-20T03:33:24;4.07;;;1.80;;
19006;SDS011;9636;47.382;8.480;2023-07-20T03:35:52;3.40;;;1.80;;
19006;SDS011;9636;47.382;8.480;2023-07-20T03:38:19;2.67;;;1.80;;
19006;SDS011;9636;47.382;8.480;2023-07-20T03:40:49;2.35;;;1.65;;
19006;SDS011;9636;47.382;8.480;2023-07-20T03:43:16;4.63;;;2.03;;
19006;SDS011;9636;47.382;8.480;2023-07-20T03:45:43;2.38;;;1.88;;
19006;SDS011;9636;47.382;8.480;2023-07-20T03:48:10;2.95;;;1.90;;
19006;SDS011;9636;47.382;8.480;2023-07-20T03:50:38;1.80;;;1.70;;
19006;SDS011;9636;47.382;8.480;2023-07-20T03:53:05;2.47;;;1.75;;
19006;SDS011;9636;47.382;8.480;2023-07-20T03:55:32;4.40;;;1.90;;
19006;SDS011;9636;47.382;8.480;2023-07-20T03:57:59;2.00;;;1.80;;
19006;SDS011;9636;47.382;8.480;2023-07-20T04:00:25;2.92;;;1.65;;
19006;SDS011;9636;47.382;8.480;2023-07-20T04:02:52;3.15;;;1.85;;
19006;SDS011;9636;47.382;8.480;2023-07-20T04:05:19;4.75;;;1.75;;
19006;SDS011;9636;47.382;8.480;2023-07-20T04:07:47;2.97;;;1.80;;
19006;SDS011;9636;47.382;8.480;2023-07-20T04:10:16;1.88;;;1.70;;
19006;SDS011;9636;47.382;8.480;2023-07-20T04:12:43;5.40;;;1.80;;
19006;SDS011;9636;47.382;8.480;2023-07-20T04:15:12;1.95;;;1.73;;
19006;SDS011;9636;47.382;8.480;2023-07-20T04:17:39;2.00;;;1.80;;
19006;SDS011;9636;47.382;8.480;2023-07-20T04:20:07;2.28;;;1.80;;
19006;SDS011;9636;47.382;8.480;2023-07-20T04:22:34;2.83;;;2.00;;
19006;SDS011;9636;47.382;8.480;2023-07-20T04:25:03;4.72;;;1.98;;
19006;SDS011;9636;47.382;8.480;2023-07-20T04:27:31;3.72;;;1.75;;
19006;SDS011;9636;47.382;8.480;2023-07-20T04:29:58;2.65;;;1.73;;
19006;SDS011;9636;47.382;8.480;2023-07-20T04:32:25;1.98;;;1.77;;
19006;SDS011;9636;47.382;8.480;2023-07-20T04:34:52;2.10;;;1.52;;
19006;SDS011;9636;47.382;8.480;2023-07-20T04:37:19;1.75;;;1.50;;
19006;SDS011;9636;47.382;8.480;2023-07-20T04:39:46;2.45;;;1.65;;
19006;SDS011;9636;47.382;8.480;2023-07-20T04:42:14;2.95;;;1.60;;
19006;SDS011;9636;47.382;8.480;2023-07-20T04:44:41;3.30;;;1.90;;
19006;SDS011;9636;47.382;8.480;2023-07-20T04:47:08;3.85;;;1.70;;
19006;SDS011;9636;47.382;8.480;2023-07-20T04:49:35;7.32;;;2.00;;
19006;SDS011;9636;47.382;8.480;2023-07-20T04:52:02;5.93;;;1.70;;
19006;SDS011;9636;47.382;8.480;2023-07-20T04:54:29;3.53;;;1.80;;
19006;SDS011;9636;47.382;8.480;2023-07-20T04:56:56;2.80;;;1.67;;
19006;SDS011;9636;47.382;8.480;2023-07-20T04:59:24;3.05;;;1.85;;
19006;SDS011;9636;47.382;8.480;2023-07-20T05:01:51;6.63;;;2.20;;
19006;SDS011;9636;47.382;8.480;2023-07-20T05:04:18;4.15;;;2.13;;
19006;SDS011;9636;47.382;8.480;2023-07-20T05:06:44;2.70;;;1.83;;
19006;SDS011;9636;47.382;8.480;2023-07-20T05:09:11;1.83;;;1.70;;
19006;SDS011;9636;47.382;8.480;2023-07-20T05:11:38;2.60;;;1.75;;
19006;SDS011;9636;47.382;8.480;2023-07-20T05:14:05;4.40;;;1.95;;
19006;SDS011;9636;47.382;8.480;2023-07-20T05:16:33;5.22;;;1.80;;
19006;SDS011;9636;47.382;8.480;2023-07-20T05:19:00;3.33;;;1.90;;
19006;SDS011;9636;47.382;8.480;2023-07-20T05:21:26;2.88;;;1.95;;
19006;SDS011;9636;47.382;8.480;2023-07-20T05:23:53;3.63;;;1.88;;
19006;SDS011;9636;47.382;8.480;2023-07-20T05:26:20;7.28;;;2.33;;
19006;SDS011;9636;47.382;8.480;2023-07-20T05:28:47;5.18;;;2.15;;
19006;SDS011;9636;47.382;8.480;2023-07-20T05:31:13;5.45;;;2.20;;
19006;SDS011;9636;47.382;8.480;2023-07-20T05:33:42;5.28;;;2.05;;
19006;SDS011;9636;47.382;8.480;2023-07-20T05:36:08;5.38;;;2.45;;
19006;SDS011;9636;47.382;8.480;2023-07-20T05:38:35;9.57;;;2.53;;
19006;SDS011;9636;47.382;8.480;2023-07-20T05:41:02;5.93;;;2.10;;
19006;SDS011;9636;47.382;8.480;2023-07-20T05:43:29;6.05;;;2.63;;
19006;SDS011;9636;47.382;8.480;2023-07-20T05:45:56;4.10;;;2.05;;
19006;SDS011;9636;47.382;8.480;2023-07-20T05:48:23;4.05;;;2.40;;
19006;SDS011;9636;47.382;8.480;2023-07-20T05:50:51;4.68;;;2.13;;
19006;SDS011;9636;47.382;8.480;2023-07-20T05:53:18;3.95;;;2.15;;
19006;SDS011;9636;47.382;8.480;2023-07-20T05:55:51;4.60;;;2.38;;
19006;SDS011;9636;47.382;8.480;2023-07-20T05:58:18;4.63;;;2.33;;
19006;SDS011;9636;47.382;8.480;2023-07-20T06:00:47;5.25;;;2.05;;
19006;SDS011;9636;47.382;8.480;2023-07-20T06:03:14;9.85;;;3.20;;
19006;SDS011;9636;47.382;8.480;2023-07-20T06:05:41;7.53;;;3.58;;
19006;SDS011;9636;47.382;8.480;2023-07-20T06:08:09;5.13;;;3.10;;
19006;SDS011;9636;47.382;8.480;2023-07-20T06:10:36;10.85;;;3.35;;
19006;SDS011;9636;47.382;8.480;2023-07-20T06:13:03;11.55;;;3.30;;
19006;SDS011;9636;47.382;8.480;2023-07-20T06:15:31;12.35;;;4.28;;
19006;SDS011;9636;47.382;8.480;2023-07-20T06:18:00;8.82;;;3.88;;
19006;SDS011;9636;47.382;8.480;2023-07-20T06:20:29;10.63;;;4.03;;
19006;SDS011;9636;47.382;8.480;2023-07-20T06:22:56;7.90;;;3.78;;
19006;SDS011;9636;47.382;8.480;2023-07-20T06:25:24;12.77;;;3.10;;
19006;SDS011;9636;47.382;8.480;2023-07-20T06:27:51;6.53;;;3.10;;
19006;SDS011;9636;47.382;8.480;2023-07-20T06:30:18;3.75;;;2.67;;
19006;SDS011;9636;47.382;8.480;2023-07-20T06:32:45;7.80;;;2.85;;
19006;SDS011;9636;47.382;8.480;2023-07-20T06:35:12;4.03;;;2.53;;
19006;SDS011;9636;47.382;8.480;2023-07-20T06:37:39;4.63;;;2.63;;
19006;SDS011;9636;47.382;8.480;2023-07-20T06:40:06;6.78;;;2.42;;
19006;SDS011;9636;47.382;8.480;2023-07-20T06:42:36;7.20;;;2.30;;
19006;SDS011;9636;47.382;8.480;2023-07-20T06:45:03;7.57;;;2.72;;
19006;SDS011;9636;47.382;8.480;2023-07-20T06:47:30;3.83;;;2.30;;
19006;SDS011;9636;47.382;8.480;2023-07-20T06:49:57;6.72;;;2.30;;
19006;SDS011;9636;47.382;8.480;2023-07-20T06:52:24;7.07;;;2.50;;
19006;SDS011;9636;47.382;8.480;2023-07-20T06:54:51;5.78;;;2.13;;
19006;SDS011;9636;47.382;8.480;2023-07-20T06:57:17;3.97;;;2.00;;
19006;SDS011;9636;47.382;8.480;2023-07-20T06:59:46;5.63;;;2.20;;
19006;SDS011;9636;47.382;8.480;2023-07-20T07:02:13;5.32;;;1.90;;
19006;SDS011;9636;47.382;8.480;2023-07-20T07:04:40;6.10;;;2.10;;
19006;SDS011;9636;47.382;8.480;2023-07-20T07:07:07;3.22;;;1.90;;
19006;SDS011;9636;47.382;8.480;2023-07-20T07:09:34;5.35;;;2.20;;
19006;SDS011;9636;47.382;8.480;2023-07-20T07:12:01;3.75;;;1.83;;
19006;SDS011;9636;47.382;8.480;2023-07-20T07:14:28;2.78;;;2.05;;
19006;SDS011;9636;47.382;8.480;2023-07-20T07:16:56;5.80;;;2.25;;
19006;SDS011;9636;47.382;8.480;2023-07-20T07:19:22;2.38;;;1.95;;
19006;SDS011;9636;47.382;8.480;2023-07-20T07:21:49;7.38;;;1.98;;
19006;SDS011;9636;47.382;8.480;2023-07-20T07:24:16;5.35;;;2.30;;
19006;SDS011;9636;47.382;8.480;2023-07-20T07:26:43;3.63;;;2.03;;
19006;SDS011;9636;47.382;8.480;2023-07-20T07:29:10;4.95;;;2.08;;
19006;SDS011;9636;47.382;8.480;2023-07-20T07:31:37;3.17;;;2.05;;
19006;SDS011;9636;47.382;8.480;2023-07-20T07:34:05;8.23;;;2.20;;
19006;SDS011;9636;47.382;8.480;2023-07-20T07:36:32;3.55;;;2.10;;
19006;SDS011;9636;47.382;8.480;2023-07-20T07:38:59;5.43;;;2.33;;
19006;SDS011;9636;47.382;8.480;2023-07-20T07:41:26;6.25;;;2.28;;
19006;SDS011;9636;47.382;8.480;2023-07-20T07:43:52;8.07;;;2.70;;
19006;SDS011;9636;47.382;8.480;2023-07-20T07:46:19;5.10;;;2.20;;
19006;SDS011;9636;47.382;8.480;2023-07-20T07:48:46;7.57;;;2.70;;
19006;SDS011;9636;47.382;8.480;2023-07-20T07:51:14;7.95;;;2.20;;
19006;SDS011;9636;47.382;8.480;2023-07-20T07:53:41;11.10;;;2.28;;
19006;SDS011;9636;47.382;8.480;2023-07-20T07:56:08;4.30;;;2.00;;
19006;SDS011;9636;47.382;8.480;2023-07-20T07:58:35;3.97;;;2.33;;
19006;SDS011;9636;47.382;8.480;2023-07-20T08:01:02;3.85;;;2.10;;
19006;SDS011;9636;47.382;8.480;2023-07-20T08:03:29;3.83;;;2.20;;
19006;SDS011;9636;47.382;8.480;2023-07-20T08:05:56;2.40;;;1.80;;
19006;SDS011;9636;47.382;8.480;2023-07-20T08:08:25;4.38;;;2.30;;
19006;SDS011;9636;47.382;8.480;2023-07-20T08:10:52;10.35;;;2.40;;
19006;SDS011;9636;47.382;8.480;2023-07-20T08:13:19;2.97;;;1.90;;
19006;SDS011;9636;47.382;8.480;2023-07-20T08:15:48;3.15;;;2.17;;
19006;SDS011;9636;47.382;8.480;2023-07-20T08:18:16;4.57;;;1.90;;
19006;SDS011;9636;47.382;8.480;2023-07-20T08:20:43;3.50;;;1.92;;
19006;SDS011;9636;47.382;8.480;2023-07-20T08:23:10;3.67;;;2.13;;
19006;SDS011;9636;47.382;8.480;2023-07-20T08:25:38;3.60;;;2.05;;
19006;SDS011;9636;47.382;8.480;2023-07-20T08:28:08;3.08;;;2.22;;
19006;SDS011;9636;47.382;8.480;2023-07-20T08:30:45;6.05;;;1.90;;
19006;SDS011;9636;47.382;8.480;2023-07-20T08:33:13;2.53;;;1.80;;
19006;SDS011;9636;47.382;8.480;2023-07-20T08:35:41;4.10;;;2.08;;
19006;SDS011;9636;47.382;8.480;2023-07-20T08:38:09;5.05;;;2.33;;
19006;SDS011;9636;47.382;8.480;2023-07-20T08:40:40;4.55;;;2.25;;
19006;SDS011;9636;47.382;8.480;2023-07-20T08:43:08;4.35;;;1.95;;
19006;SDS011;9636;47.382;8.480;2023-07-20T08:45:36;3.38;;;1.80;;
19006;SDS011;9636;47.382;8.480;2023-07-20T08:48:06;5.70;;;1.95;;
19006;SDS011;9636;47.382;8.480;2023-07-20T08:50:35;2.80;;;2.00;;
19006;SDS011;9636;47.382;8.480;2023-07-20T08:53:02;2.95;;;1.95;;
19006;SDS011;9636;47.382;8.480;2023-07-20T08:55:29;6.82;;;2.10;;
19006;SDS011;9636;47.382;8.480;2023-07-20T08:57:58;4.45;;;1.92;;
19006;SDS011;9636;47.382;8.480;2023-07-20T09:00:26;4.45;;;2.03;;
19006;SDS011;9636;47.382;8.480;2023-07-20T09:02:54;5.60;;;2.10;;
19006;SDS011;9636;47.382;8.480;2023-07-20T09:05:22;3.53;;;1.90;;
19006;SDS011;9636;47.382;8.480;2023-07-20T09:07:50;6.32;;;2.10;;
19006;SDS011;9636;47.382;8.480;2023-07-20T09:10:17;4.32;;;2.17;;
19006;SDS011;9636;47.382;8.480;2023-07-20T09:12:46;2.53;;;1.88;;
19006;SDS011;9636;47.382;8.480;2023-07-20T09:15:14;3.88;;;1.88;;
19006;SDS011;9636;47.382;8.480;2023-07-20T09:17:45;4.90;;;2.60;;
19006;SDS011;9636;47.382;8.480;2023-07-20T09:20:14;3.45;;;1.85;;
19006;SDS011;9636;47.382;8.480;2023-07-20T09:22:42;3.88;;;2.30;;
19006;SDS011;9636;47.382;8.480;2023-07-20T09:25:10;3.80;;;2.05;;
19006;SDS011;9636;47.382;8.480;2023-07-20T09:27:38;4.38;;;2.38;;
19006;SDS011;9636;47.382;8.480;2023-07-20T09:30:06;6.53;;;2.20;;
19006;SDS011;9636;47.382;8.480;2023-07-20T09:32:40;5.35;;;1.92;;
19006;SDS011;9636;47.382;8.480;2023-07-20T09:35:14;5.97;;;1.92;;
19006;SDS011;9636;47.382;8.480;2023-07-20T09:37:45;3.22;;;1.75;;
19006;SDS011;9636;47.382;8.480;2023-07-20T09:40:17;3.50;;;1.90;;
19006;SDS011;9636;47.382;8.480;2023-07-20T09:42:45;3.33;;;1.90;;
19006;SDS011;9636;47.382;8.480;2023-07-20T09:45:12;2.33;;;1.63;;
19006;SDS011;9636;47.382;8.480;2023-07-20T09:47:40;4.03;;;1.63;;
19006;SDS011;9636;47.382;8.480;2023-07-20T09:50:07;3.33;;;2.22;;
19006;SDS011;9636;47.382;8.480;2023-07-20T09:52:37;3.88;;;2.15;;
19006;SDS011;9636;47.382;8.480;2023-07-20T09:55:06;3.40;;;1.70;;
19006;SDS011;9636;47.382;8.480;2023-07-20T09:57:34;2.90;;;1.98;;
19006;SDS011;9636;47.382;8.480;2023-07-20T10:00:01;6.45;;;2.10;;
19006;SDS011;9636;47.382;8.480;2023-07-20T10:02:33;4.97;;;1.98;;
19006;SDS011;9636;47.382;8.480;2023-07-20T10:05:04;2.53;;;1.92;;
19006;SDS011;9636;47.382;8.480;2023-07-20T10:07:35;5.60;;;2.28;;
19006;SDS011;9636;47.382;8.480;2023-07-20T10:10:06;6.05;;;1.98;;
19006;SDS011;9636;47.382;8.480;2023-07-20T10:12:36;3.70;;;2.20;;
19006;SDS011;9636;47.382;8.480;2023-07-20T10:15:06;4.63;;;1.88;;
19006;SDS011;9636;47.382;8.480;2023-07-20T10:17:38;3.83;;;1.88;;
19006;SDS011;9636;47.382;8.480;2023-07-20T10:20:10;5.13;;;2.13;;
19006;SDS011;9636;47.382;8.480;2023-07-20T10:22:38;5.65;;;2.17;;
19006;SDS011;9636;47.382;8.480;2023-07-20T10:25:05;3.88;;;1.95;;
19006;SDS011;9636;47.382;8.480;2023-07-20T10:27:33;3.25;;;2.05;;
19006;SDS011;9636;47.382;8.480;2023-07-20T10:30:00;2.90;;;2.10;;
19006;SDS011;9636;47.382;8.480;2023-07-20T10:32:28;4.28;;;2.60;;
19006;SDS011;9636;47.382;8.480;2023-07-20T10:34:56;12.02;;;3.38;;
19006;SDS011;9636;47.382;8.480;2023-07-20T10:40:24;2.58;;;2.25;;
19006;SDS011;9636;47.382;8.480;2023-07-20T10:43:02;3.45;;;2.10;;
19006;SDS011;9636;47.382;8.480;2023-07-20T10:45:33;2.80;;;2.10;;
19006;SDS011;9636;47.382;8.480;2023-07-20T10:48:02;5.00;;;2.10;;
19006;SDS011;9636;47.382;8.480;2023-07-20T10:50:30;2.85;;;1.95;;
19006;SDS011;9636;47.382;8.480;2023-07-20T10:53:05;4.75;;;2.45;;
19006;SDS011;9636;47.382;8.480;2023-07-20T10:55:37;6.57;;;2.35;;
19006;SDS011;9636;47.382;8.480;2023-07-20T10:58:07;3.78;;;2.20;;
19006;SDS011;9636;47.382;8.480;2023-07-20T11:00:36;2.78;;;2.08;;
19006;SDS011;9636;47.382;8.480;2023-07-20T11:03:03;3.95;;;2.17;;
19006;SDS011;9636;47.382;8.480;2023-07-20T11:05:31;3.17;;;1.92;;
19006;SDS011;9636;47.382;8.480;2023-07-20T11:08:00;6.60;;;2.10;;
19006;SDS011;9636;47.382;8.480;2023-07-20T11:10:29;3.10;;;2.30;;
19006;SDS011;9636;47.382;8.480;2023-07-20T11:13:16;6.72;;;2.20;;
19006;SDS011;9636;47.382;8.480;2023-07-20T11:16:02;6.70;;;2.20;;
19006;SDS011;9636;47.382;8.480;2023-07-20T11:18:33;5.47;;;2.05;;
19006;SDS011;9636;47.382;8.480;2023-07-20T11:21:06;6.82;;;2.28;;
19006;SDS011;9636;47.382;8.480;2023-07-20T11:23:37;3.92;;;2.28;;
19006;SDS011;9636;47.382;8.480;2023-07-20T11:26:06;4.40;;;2.15;;
19006;SDS011;9636;47.382;8.480;2023-07-20T11:28:34;5.65;;;2.22;;
19006;SDS011;9636;47.382;8.480;2023-07-20T11:31:02;3.33;;;2.38;;
19006;SDS011;9636;47.382;8.480;2023-07-20T11:33:28;3.42;;;2.15;;
19006;SDS011;9636;47.382;8.480;2023-07-20T11:35:55;6.55;;;2.30;;
19006;SDS011;9636;47.382;8.480;2023-07-20T11:38:23;5.90;;;2.30;;
19006;SDS011;9636;47.382;8.480;2023-07-20T11:40:50;5.85;;;2.20;;
19006;SDS011;9636;47.382;8.480;2023-07-20T11:43:18;2.30;;;2.00;;
19006;SDS011;9636;47.382;8.480;2023-07-20T11:45:48;3.53;;;1.95;;
19006;SDS011;9636;47.382;8.480;2023-07-20T11:48:15;4.03;;;2.05;;
19006;SDS011;9636;47.382;8.480;2023-07-20T11:50:42;4.25;;;2.30;;
19006;SDS011;9636;47.382;8.480;2023-07-20T11:53:08;5.03;;;2.25;;
19006;SDS011;9636;47.382;8.480;2023-07-20T11:55:36;5.10;;;2.17;;
19006;SDS011;9636;47.382;8.480;2023-07-20T11:58:04;3.55;;;2.20;;
19006;SDS011;9636;47.382;8.480;2023-07-20T12:00:33;4.47;;;2.22;;
19006;SDS011;9636;47.382;8.480;2023-07-20T12:03:01;4.40;;;2.78;;
19006;SDS011;9636;47.382;8.480;2023-07-20T12:05:31;5.00;;;2.25;;
19006;SDS011;9636;47.382;8.480;2023-07-20T12:07:58;5.45;;;2.30;;
19006;SDS011;9636;47.382;8.480;2023-07-20T12:10:25;5.80;;;2.30;;
19006;SDS011;9636;47.382;8.480;2023-07-20T12:12:54;3.22;;;1.98;;
19006;SDS011;9636;47.382;8.480;2023-07-20T12:15:26;5.40;;;2.03;;
19006;SDS011;9636;47.382;8.480;2023-07-20T12:17:56;4.88;;;2.45;;
19006;SDS011;9636;47.382;8.480;2023-07-20T12:20:25;6.55;;;2.40;;
19006;SDS011;9636;47.382;8.480;2023-07-20T12:22:55;2.67;;;2.08;;
19006;SDS011;9636;47.382;8.480;2023-07-20T12:25:23;2.50;;;2.10;;
19006;SDS011;9636;47.382;8.480;2023-07-20T12:27:59;5.63;;;2.35;;
19006;SDS011;9636;47.382;8.480;2023-07-20T12:30:27;2.90;;;2.08;;
19006;SDS011;9636;47.382;8.480;2023-07-20T12:32:54;3.80;;;2.17;;
19006;SDS011;9636;47.382;8.480;2023-07-20T12:35:22;4.53;;;2.10;;
19006;SDS011;9636;47.382;8.480;2023-07-20T12:37:49;5.45;;;2.40;;
19006;SDS011;9636;47.382;8.480;2023-07-20T12:40:16;2.85;;;2.17;;
19006;SDS011;9636;47.382;8.480;2023-07-20T12:42:43;3.63;;;2.50;;
19006;SDS011;9636;47.382;8.480;2023-07-20T12:45:10;4.72;;;2.38;;
19006;SDS011;9636;47.382;8.480;2023-07-20T12:47:38;5.70;;;2.60;;
19006;SDS011;9636;47.382;8.480;2023-07-20T12:50:07;3.05;;;2.35;;
19006;SDS011;9636;47.382;8.480;2023-07-20T12:52:35;2.47;;;2.13;;
19006;SDS011;9636;47.382;8.480;2023-07-20T12:55:03;4.68;;;2.20;;
19006;SDS011;9636;47.382;8.480;2023-07-20T12:57:31;4.40;;;2.17;;
19006;SDS011;9636;47.382;8.480;2023-07-20T12:59:57;2.88;;;2.13;;
19006;SDS011;9636;47.382;8.480;2023-07-20T13:02:24;2.83;;;2.00;;
19006;SDS011;9636;47.382;8.480;2023-07-20T13:04:51;4.18;;;2.00;;
19006;SDS011;9636;47.382;8.480;2023-07-20T13:07:22;4.30;;;2.08;;
19006;SDS011;9636;47.382;8.480;2023-07-20T13:09:55;3.15;;;2.05;;
19006;SDS011;9636;47.382;8.480;2023-07-20T13:12:24;3.35;;;2.10;;
19006;SDS011;9636;47.382;8.480;2023-07-20T13:14:50;3.17;;;2.47;;
19006;SDS011;9636;47.382;8.480;2023-07-20T13:17:17;5.43;;;2.47;;
19006;SDS011;9636;47.382;8.480;2023-07-20T13:19:44;5.70;;;2.17;;
19006;SDS011;9636;47.382;8.480;2023-07-20T13:22:11;7.22;;;2.30;;
19006;SDS011;9636;47.382;8.480;2023-07-20T13:24:41;3.03;;;2.35;;
19006;SDS011;9636;47.382;8.480;2023-07-20T13:27:07;4.88;;;2.30;;
19006;SDS011;9636;47.382;8.480;2023-07-20T13:29:34;4.38;;;2.10;;
19006;SDS011;9636;47.382;8.480;2023-07-20T13:32:01;4.28;;;2.10;;
19006;SDS011;9636;47.382;8.480;2023-07-20T13:34:30;3.63;;;2.30;;
19006;SDS011;9636;47.382;8.480;2023-07-20T13:36:57;3.45;;;2.30;;
19006;SDS011;9636;47.382;8.480;2023-07-20T13:39:23;3.28;;;2.42;;
19006;SDS011;9636;47.382;8.480;2023-07-20T13:41:53;4.47;;;2.08;;
19006;SDS011;9636;47.382;8.480;2023-07-20T13:44:21;6.95;;;2.20;;
19006;SDS011;9636;47.382;8.480;2023-07-20T13:46:48;2.78;;;1.92;;
19006;SDS011;9636;47.382;8.480;2023-07-20T13:49:15;2.53;;;2.08;;
19006;SDS011;9636;47.382;8.480;2023-07-20T13:51:42;9.88;;;2.45;;
19006;SDS011;9636;47.382;8.480;2023-07-20T13:54:09;3.40;;;2.40;;
19006;SDS011;9636;47.382;8.480;2023-07-20T13:56:36;4.18;;;2.30;;
19006;SDS011;9636;47.382;8.480;2023-07-20T13:59:05;5.20;;;1.90;;
19006;SDS011;9636;47.382;8.480;2023-07-20T14:01:32;4.70;;;2.30;;
19006;SDS011;9636;47.382;8.480;2023-07-20T14:03:59;3.97;;;2.10;;
19006;SDS011;9636;47.382;8.480;2023-07-20T14:06:29;4.60;;;2.10;;
19006;SDS011;9636;47.382;8.480;2023-07-20T14:08:56;6.07;;;2.20;;
19006;SDS011;9636;47.382;8.480;2023-07-20T14:11:23;3.95;;;2.35;;
19006;SDS011;9636;47.382;8.480;2023-07-20T14:13:50;6.93;;;2.20;;
19006;SDS011;9636;47.382;8.480;2023-07-20T14:16:20;5.13;;;2.13;;
19006;SDS011;9636;47.382;8.480;2023-07-20T14:18:47;2.35;;;2.10;;
19006;SDS011;9636;47.382;8.480;2023-07-20T14:21:14;4.60;;;2.15;;
19006;SDS011;9636;47.382;8.480;2023-07-20T14:23:41;9.50;;;2.30;;
19006;SDS011;9636;47.382;8.480;2023-07-20T14:26:08;4.47;;;2.10;;
19006;SDS011;9636;47.382;8.480;2023-07-20T14:28:35;3.35;;;2.00;;
19006;SDS011;9636;47.382;8.480;2023-07-20T14:31:02;5.07;;;2.05;;
19006;SDS011;9636;47.382;8.480;2023-07-20T14:33:31;4.60;;;2.20;;
19006;SDS011;9636;47.382;8.480;2023-07-20T14:35:58;4.35;;;2.10;;
19006;SDS011;9636;47.382;8.480;2023-07-20T14:38:26;6.60;;;2.08;;
19006;SDS011;9636;47.382;8.480;2023-07-20T14:40:53;2.80;;;2.10;;
19006;SDS011;9636;47.382;8.480;2023-07-20T14:43:20;3.53;;;2.30;;
19006;SDS011;9636;47.382;8.480;2023-07-20T14:45:47;2.75;;;2.13;;
19006;SDS011;9636;47.382;8.480;2023-07-20T14:48:13;3.95;;;2.03;;
19006;SDS011;9636;47.382;8.480;2023-07-20T14:50:42;6.75;;;2.22;;
19006;SDS011;9636;47.382;8.480;2023-07-20T14:53:10;8.18;;;2.30;;
19006;SDS011;9636;47.382;8.480;2023-07-20T14:55:37;2.70;;;1.92;;
19006;SDS011;9636;47.382;8.480;2023-07-20T14:58:04;3.67;;;2.30;;
19006;SDS011;9636;47.382;8.480;2023-07-20T15:00:30;4.05;;;2.20;;
19006;SDS011;9636;47.382;8.480;2023-07-20T15:02:57;3.50;;;2.40;;
19006;SDS011;9636;47.382;8.480;2023-07-20T15:05:24;4.88;;;2.20;;
19006;SDS011;9636;47.382;8.480;2023-07-20T15:07:53;12.00;;;2.10;;
19006;SDS011;9636;47.382;8.480;2023-07-20T15:10:20;4.45;;;2.25;;